createdAt,value
2024-03-06T00:02:23.583Z,5.72
2024-03-06T00:04:50.551Z,5.69
2024-03-06T00:07:17.689Z,5.67
2024-03-06T00:09:44.471Z,5.67
2024-03-06T00:12:11.645Z,5.67
2024-03-06T00:14:38.981Z,5.65
2024-03-06T00:17:07.134Z,5.51
2024-03-06T00:19:34.054Z,5.61
2024-03-06T00:22:02.376Z,5.56
2024-03-06T00:24:29.465Z,5.57
2024-03-06T00:26:56.449Z,5.55
2024-03-06T00:29:23.285Z,5.55
2024-03-06T00:31:50.303Z,5.53
2024-03-06T00:34:17.290Z,5.36
2024-03-06T00:36:44.792Z,5.46
2024-03-06T00:39:15.392Z,5.44
2024-03-06T00:41:43.043Z,5.45
2024-03-06T00:44:09.719Z,5.39
2024-03-06T00:46:36.481Z,5.42
2024-03-06T00:49:03.655Z,5.36
2024-03-06T00:51:37.228Z,5.34
2024-03-06T00:54:10.967Z,5.32
2024-03-06T00:56:40.893Z,5.34
2024-03-06T00:59:08.399Z,5.23
2024-03-06T01:01:35.528Z,5.32
2024-03-06T01:04:03.290Z,5.30
2024-03-06T01:06:30.018Z,5.24
2024-03-06T01:08:58.130Z,5.22
2024-03-06T01:11:25.621Z,5.24
2024-03-06T01:13:52.300Z,5.16
2024-03-06T01:16:19.249Z,5.19
2024-03-06T01:18:45.929Z,5.22
2024-03-06T01:21:12.642Z,5.14
2024-03-06T01:23:39.422Z,5.19
2024-03-06T01:26:06.105Z,5.11
2024-03-06T01:28:32.883Z,5.11
2024-03-06T01:31:00.178Z,5.04
2024-03-06T01:33:27.834Z,5.13
2024-03-06T01:35:54.800Z,5.10
2024-03-06T01:38:21.616Z,5.06
2024-03-06T01:40:48.333Z,5.08
2024-03-06T01:43:23.238Z,4.97
2024-03-06T01:45:51.677Z,5.06
2024-03-06T01:48:21.411Z,5.03
2024-03-06T01:50:48.298Z,4.96
2024-03-06T01:53:17.842Z,4.98
2024-03-06T01:55:44.509Z,5.00
2024-03-06T01:58:11.564Z,4.90
2024-03-06T02:00:38.674Z,4.95
2024-03-06T02:03:05.484Z,4.91
2024-03-06T02:05:33.269Z,4.91
2024-03-06T02:08:03.637Z,4.88
2024-03-06T02:10:31.075Z,4.89
2024-03-06T02:12:59.074Z,4.86
2024-03-06T02:15:25.710Z,4.85
2024-03-06T02:17:53.385Z,4.86
2024-03-06T02:20:26.595Z,4.84
2024-03-06T02:22:53.340Z,4.81
2024-03-06T02:25:21.126Z,4.80
2024-03-06T02:27:49.384Z,4.74
2024-03-06T02:30:16.530Z,4.78
2024-03-06T02:32:44.789Z,4.71
2024-03-06T02:35:12.090Z,4.72
2024-03-06T02:37:39.652Z,4.68
2024-03-06T02:40:08.347Z,4.69
2024-03-06T02:42:34.887Z,4.65
2024-03-06T02:45:01.398Z,4.66
2024-03-06T02:47:27.889Z,4.65
2024-03-06T02:49:54.469Z,4.63
2024-03-06T02:52:21.088Z,4.62
2024-03-06T02:54:47.648Z,4.61
2024-03-06T02:57:14.119Z,4.59
2024-03-06T02:59:41.578Z,4.60
2024-03-06T03:02:08.781Z,4.56
2024-03-06T03:04:35.452Z,4.55
2024-03-06T03:07:01.911Z,4.53
2024-03-06T03:09:29.102Z,4.53
2024-03-06T03:11:56.066Z,4.53
2024-03-06T03:14:22.783Z,4.53
2024-03-06T03:16:49.697Z,4.48
2024-03-06T03:19:17.346Z,4.45
2024-03-06T03:21:47.069Z,4.46
2024-03-06T03:24:13.613Z,4.44
2024-03-06T03:26:40.080Z,4.43
2024-03-06T03:29:06.644Z,4.45
2024-03-06T03:31:34.311Z,4.44
2024-03-06T03:34:00.832Z,4.38
2024-03-06T03:36:27.409Z,4.41
2024-03-06T03:38:54.072Z,4.40
2024-03-06T03:41:20.845Z,4.37
2024-03-06T03:43:47.517Z,4.36
2024-03-06T03:46:14.744Z,4.32
2024-03-06T03:48:41.298Z,4.36
2024-03-06T03:51:08.127Z,4.33
2024-03-06T03:53:35.342Z,4.33
2024-03-06T03:56:02.680Z,4.30
2024-03-06T03:58:29.247Z,4.28
2024-03-06T04:00:56.853Z,4.29
2024-03-06T04:03:23.740Z,4.27
2024-03-06T04:05:50.873Z,4.26
2024-03-06T04:08:17.447Z,4.26
2024-03-06T04:10:47.352Z,4.27
2024-03-06T04:13:16.083Z,4.25
2024-03-06T04:15:42.711Z,4.24
2024-03-06T04:18:09.364Z,4.22
2024-03-06T04:20:35.838Z,4.16
2024-03-06T04:23:03.038Z,4.20
2024-03-06T04:25:29.601Z,4.19
2024-03-06T04:27:56.868Z,4.19
2024-03-06T04:30:23.634Z,4.16
2024-03-06T04:32:50.316Z,4.18
2024-03-06T04:35:17.212Z,4.17
2024-03-06T04:37:45.329Z,4.11
2024-03-06T04:40:12.470Z,4.16
2024-03-06T04:42:39.050Z,4.09
2024-03-06T04:45:26.583Z,4.11
2024-03-06T04:47:53.305Z,4.10
2024-03-06T04:50:19.969Z,4.08
2024-03-06T04:52:46.865Z,4.11
2024-03-06T04:55:13.964Z,4.09
2024-03-06T04:57:44.590Z,4.10
2024-03-06T05:00:12.433Z,4.11
2024-03-06T06:00:19.293Z,3.80
2024-03-06T06:02:47.121Z,3.82
2024-03-06T06:07:45.529Z,3.82
2024-03-06T06:10:12.389Z,3.85
2024-03-06T06:12:38.901Z,3.84
2024-03-06T06:15:06.108Z,3.87
2024-03-06T06:17:32.734Z,3.87
2024-03-06T06:19:59.396Z,3.74
2024-03-06T06:22:28.645Z,3.85
2024-03-06T06:24:56.754Z,3.85
2024-03-06T06:27:23.345Z,3.84
2024-03-06T06:29:49.853Z,3.79
2024-03-06T06:32:16.543Z,3.84
2024-03-06T06:34:43.078Z,3.85
2024-03-06T06:37:09.556Z,3.83
2024-03-06T06:39:36.103Z,3.77
2024-03-06T06:42:04.284Z,3.81
2024-03-06T06:44:31.003Z,3.87
2024-03-06T06:46:57.848Z,3.82
2024-03-06T06:49:24.989Z,3.87
2024-03-06T06:51:51.714Z,3.88
2024-03-06T06:54:18.360Z,3.88
2024-03-06T06:56:44.922Z,3.88
2024-03-06T06:59:11.956Z,3.88
2024-03-06T07:01:38.452Z,3.89
2024-03-06T07:04:05.069Z,3.82
2024-03-06T07:06:31.532Z,3.89
2024-03-06T07:08:58.004Z,3.89
2024-03-06T07:11:25.235Z,3.88
2024-03-06T07:13:52.366Z,3.90
2024-03-06T07:16:18.933Z,3.89
2024-03-06T07:18:45.423Z,3.89
2024-03-06T07:21:11.974Z,3.93
2024-03-06T07:23:38.546Z,3.88
2024-03-06T07:26:06.271Z,3.92
2024-03-06T07:28:33.924Z,3.93
2024-03-06T07:31:00.368Z,3.92
2024-03-06T07:33:27.005Z,3.95
2024-03-06T07:35:53.841Z,3.97
2024-03-06T07:38:21.892Z,3.98
2024-03-06T07:40:48.567Z,3.94
2024-03-06T07:43:15.751Z,3.97
2024-03-06T07:45:42.689Z,4.03
2024-03-06T07:48:10.993Z,3.90
2024-03-06T07:50:37.774Z,4.08
2024-03-06T07:53:04.485Z,4.08
2024-03-06T07:55:31.046Z,4.10
2024-03-06T07:57:57.793Z,4.14
2024-03-06T08:00:24.677Z,4.13
2024-03-06T08:02:51.594Z,4.15
2024-03-06T08:05:19.118Z,4.21
2024-03-06T08:07:47.065Z,4.20
2024-03-06T08:10:14.629Z,4.25
2024-03-06T08:12:44.859Z,4.28
2024-03-06T08:15:13.230Z,4.31
2024-03-06T08:17:43.349Z,4.30
2024-03-06T08:20:11.194Z,4.35
2024-03-06T08:22:40.621Z,4.35
2024-03-06T08:25:11.579Z,4.37
2024-03-06T08:27:40.156Z,4.30
2024-03-06T08:30:08.306Z,4.40
2024-03-06T08:32:36.710Z,4.44
2024-03-06T08:35:07.107Z,4.48
2024-03-06T08:37:35.154Z,4.46
2024-03-06T08:40:02.459Z,4.50
2024-03-06T08:42:30.438Z,4.51
2024-03-06T08:44:57.813Z,4.56
2024-03-06T08:47:24.617Z,4.58
2024-03-06T08:49:51.314Z,4.57
2024-03-06T08:52:18.006Z,4.62
2024-03-06T08:54:44.858Z,4.64
2024-03-06T08:57:12.546Z,4.67
2024-03-06T08:59:39.181Z,4.72
2024-03-06T09:02:17.582Z,4.74
2024-03-06T09:04:44.505Z,4.74
2024-03-06T09:07:11.756Z,4.75
2024-03-06T09:09:39.317Z,4.81
2024-03-06T09:12:07.287Z,4.83
2024-03-06T09:14:34.985Z,4.84
2024-03-06T09:17:02.293Z,4.89
2024-03-06T09:19:29.740Z,4.89
2024-03-06T09:21:56.268Z,4.90
2024-03-06T09:24:26.283Z,4.93
2024-03-06T09:26:53.982Z,4.98
2024-03-06T09:29:21.208Z,4.98
2024-03-06T09:31:51.170Z,5.00
2024-03-06T09:34:17.723Z,5.03
2024-03-06T09:36:49.094Z,5.03
2024-03-06T09:39:26.059Z,5.05
2024-03-06T09:41:54.662Z,5.09
2024-03-06T09:44:22.437Z,5.09
2024-03-06T09:46:50.374Z,5.14
2024-03-06T09:49:20.355Z,5.16
2024-03-06T09:51:48.564Z,5.17
2024-03-06T09:54:18.740Z,5.22
2024-03-06T09:56:48.030Z,5.22
2024-03-06T09:59:15.649Z,5.25
2024-03-06T10:01:55.475Z,5.24
2024-03-06T10:04:26.035Z,5.30
2024-03-06T10:06:57.479Z,5.30
2024-03-06T10:09:24.669Z,5.32
2024-03-06T10:11:55.278Z,5.36
2024-03-06T10:14:22.154Z,5.35
2024-03-06T10:16:59.428Z,5.39
2024-03-06T10:19:31.182Z,5.41
2024-03-06T10:21:58.558Z,5.44
2024-03-06T10:24:29.478Z,5.45
2024-03-06T10:26:59.283Z,5.48
2024-03-06T10:29:27.742Z,5.47
2024-03-06T10:31:59.096Z,5.50
2024-03-06T10:34:27.343Z,5.52
2024-03-06T10:37:04.962Z,5.55
2024-03-06T10:39:40.139Z,5.54
2024-03-06T10:42:08.235Z,5.57
2024-03-06T10:44:35.929Z,5.61
2024-03-06T10:47:04.933Z,5.61
2024-03-06T10:49:33.279Z,5.66
2024-03-06T10:52:01.138Z,5.68
2024-03-06T10:54:29.944Z,5.70
2024-03-06T10:56:57.404Z,5.74
2024-03-06T10:59:28.855Z,5.75
2024-03-06T11:02:03.128Z,5.77
2024-03-06T11:04:35.113Z,5.80
2024-03-06T11:07:03.689Z,5.81
2024-03-06T11:09:36.186Z,5.82
2024-03-06T11:12:03.652Z,5.87
2024-03-06T11:14:32.559Z,5.87
2024-03-06T11:17:06.524Z,5.89
2024-03-06T11:19:53.961Z,5.91
2024-03-06T11:23:09.712Z,5.92
2024-03-06T11:25:52.200Z,5.92
2024-03-06T11:28:23.839Z,5.95
2024-03-06T11:31:07.413Z,5.96
2024-03-06T11:33:45.669Z,6.00
2024-03-06T11:36:19.438Z,6.00
2024-03-06T11:39:08.373Z,6.03
2024-03-06T11:41:38.078Z,6.05
2024-03-06T11:44:07.579Z,6.04
2024-03-06T11:46:50.865Z,6.07
2024-03-06T11:49:21.682Z,6.15
2024-03-06T11:51:54.894Z,6.15
2024-03-06T11:54:25.338Z,6.18
2024-03-06T11:56:54.839Z,6.15
2024-03-06T11:59:29.697Z,6.23
2024-03-06T12:01:57.658Z,6.25
2024-03-06T12:04:25.417Z,6.27
2024-03-06T12:06:52.255Z,6.27
2024-03-06T12:09:19.383Z,6.29
2024-03-06T12:11:46.366Z,6.31
2024-03-06T12:14:18.877Z,6.34
2024-03-06T12:16:55.500Z,6.38
2024-03-06T12:19:23.318Z,6.41
2024-03-06T12:21:49.930Z,6.43
2024-03-06T12:24:21.019Z,6.42
2024-03-06T12:26:49.573Z,6.46
2024-03-06T12:29:22.213Z,6.48
2024-03-06T12:31:48.791Z,6.51
2024-03-06T12:34:18.709Z,6.53
2024-03-06T12:36:45.886Z,6.57
2024-03-06T12:39:19.199Z,6.60
2024-03-06T12:41:46.610Z,6.62
2024-03-06T12:44:13.289Z,6.63
2024-03-06T12:46:40.141Z,6.68
2024-03-06T12:49:06.646Z,6.70
2024-03-06T12:51:33.802Z,6.78
2024-03-06T12:54:02.246Z,6.80
2024-03-06T12:56:28.811Z,6.79
2024-03-06T12:58:55.342Z,6.85
2024-03-06T13:01:21.979Z,6.87
2024-03-06T13:03:48.608Z,6.90
2024-03-06T13:06:15.249Z,6.90
2024-03-06T13:08:42.387Z,6.94
2024-03-06T13:11:10.675Z,7.00
2024-03-06T13:13:37.378Z,7.02
2024-03-06T13:16:06.697Z,7.03
2024-03-06T13:18:35.155Z,7.03
2024-03-06T13:21:02.931Z,7.05
2024-03-06T13:23:29.606Z,7.07
2024-03-06T13:25:56.221Z,7.14
2024-03-06T13:28:22.685Z,7.15
2024-03-06T13:30:49.274Z,7.18
2024-03-06T13:33:15.976Z,7.17
2024-03-06T13:35:43.744Z,7.22
2024-03-06T13:38:10.282Z,7.19
2024-03-06T13:40:36.847Z,7.21
2024-03-06T13:43:03.328Z,7.23
2024-03-06T13:45:29.884Z,7.22
2024-03-06T13:47:56.598Z,7.26
2024-03-06T13:50:24.862Z,7.25
2024-03-06T13:52:51.622Z,7.24
2024-03-06T13:55:18.355Z,7.26
2024-03-06T13:57:44.876Z,7.29
2024-03-06T14:00:18.100Z,7.30
2024-03-06T14:02:48.683Z,7.29
2024-03-06T14:05:18.189Z,7.33
2024-03-06T14:07:44.933Z,7.34
2024-03-06T14:10:12.453Z,7.34
2024-03-06T14:12:39.681Z,7.36
2024-03-06T14:15:13.805Z,7.37
2024-03-06T14:17:40.960Z,7.38
2024-03-06T14:20:07.820Z,7.38
2024-03-06T14:22:34.393Z,7.39
2024-03-06T14:25:00.920Z,7.43
2024-03-06T14:27:27.400Z,7.42
2024-03-06T14:29:55.302Z,7.45
2024-03-06T14:32:22.642Z,7.45
2024-03-06T14:34:49.396Z,7.47
2024-03-06T14:37:15.966Z,7.47
2024-03-06T14:39:42.443Z,7.50
2024-03-06T14:42:08.963Z,7.51
2024-03-06T14:44:35.642Z,7.52
2024-03-06T14:47:02.213Z,7.51
2024-03-06T14:49:28.810Z,7.54
2024-03-06T14:51:56.582Z,7.51
2024-03-06T14:54:26.766Z,7.55
2024-03-06T14:56:54.199Z,7.54
2024-03-06T14:59:22.551Z,7.53
2024-03-06T15:01:49.762Z,7.52
2024-03-06T15:04:16.342Z,7.55
2024-03-06T15:06:44.397Z,7.57
2024-03-06T15:09:13.090Z,7.56
2024-03-06T15:11:42.988Z,7.54
2024-03-06T15:14:09.752Z,7.57
2024-03-06T15:16:38.495Z,7.58
2024-03-06T15:19:05.166Z,7.55
2024-03-06T15:21:35.210Z,7.60
2024-03-06T15:24:04.643Z,7.61
2024-03-06T15:26:32.686Z,7.60
2024-03-06T15:29:00.388Z,7.65
2024-03-06T15:31:26.901Z,7.65
2024-03-06T15:33:53.592Z,7.64
2024-03-06T15:36:20.168Z,7.64
2024-03-06T15:38:46.816Z,7.66
2024-03-06T15:41:13.832Z,7.69
2024-03-06T15:43:40.421Z,7.67
2024-03-06T15:46:07.519Z,7.63
2024-03-06T15:48:35.109Z,7.68
2024-03-06T15:51:01.848Z,7.62
2024-03-06T15:53:32.830Z,7.68
2024-03-06T15:55:59.440Z,7.66
2024-03-06T15:58:26.085Z,7.66
2024-03-06T16:00:56.727Z,7.67
2024-03-06T16:03:26.173Z,7.67
2024-03-06T16:05:58.784Z,7.63
2024-03-06T16:08:30.480Z,7.64
2024-03-06T16:10:58.565Z,7.63
2024-03-06T16:13:25.107Z,7.64
2024-03-06T16:15:51.793Z,7.61
2024-03-06T16:18:18.587Z,7.64
2024-03-06T16:20:46.141Z,7.62
2024-03-06T16:23:12.844Z,7.63
2024-03-06T16:25:39.427Z,7.62
2024-03-06T16:28:07.741Z,7.62
2024-03-06T16:30:34.576Z,7.60
2024-03-06T16:33:02.304Z,7.58
2024-03-06T16:35:29.316Z,7.56
2024-03-06T16:37:56.878Z,7.59
2024-03-06T16:40:24.118Z,7.59
2024-03-06T16:42:50.631Z,7.56
2024-03-06T16:45:17.203Z,7.52
2024-03-06T16:47:43.855Z,7.55
2024-03-06T16:50:10.853Z,7.53
2024-03-06T16:52:37.370Z,7.54
2024-03-06T16:55:04.585Z,7.53
2024-03-06T16:57:32.119Z,7.52
2024-03-06T16:59:58.790Z,7.49
2024-03-06T17:02:25.373Z,7.48
2024-03-06T17:04:51.875Z,7.47
2024-03-06T17:07:18.383Z,7.48
2024-03-06T17:09:44.837Z,7.47
2024-03-06T17:12:11.450Z,7.46
2024-03-06T17:14:38.083Z,7.43
2024-03-06T17:17:04.902Z,7.43
2024-03-06T17:19:31.377Z,7.39
2024-03-06T17:21:58.096Z,7.41
2024-03-06T17:24:24.607Z,7.36
2024-03-06T17:26:51.246Z,7.37
2024-03-06T17:29:18.164Z,7.30
2024-03-06T17:31:45.039Z,7.32
2024-03-06T17:34:11.485Z,7.30
2024-03-06T17:36:39.337Z,7.27
2024-03-06T17:39:09.858Z,7.29
2024-03-06T17:41:36.663Z,7.27
2024-03-06T17:44:05.223Z,7.25
2024-03-06T17:46:32.682Z,7.22
2024-03-06T17:48:59.788Z,7.22
2024-03-06T17:51:33.498Z,7.19
2024-03-06T17:53:59.971Z,7.14
2024-03-06T17:56:26.678Z,7.14
2024-03-06T17:58:53.971Z,7.15
2024-03-06T18:01:25.087Z,7.12
2024-03-06T18:03:53.085Z,7.10
2024-03-06T18:06:19.636Z,7.09
2024-03-06T18:08:46.294Z,7.06
2024-03-06T18:11:13.002Z,7.05
2024-03-06T18:13:40.556Z,7.04
2024-03-06T18:16:12.546Z,6.98
2024-03-06T18:18:39.353Z,6.99
2024-03-06T18:21:07.058Z,6.99
2024-03-06T18:23:33.616Z,6.97
2024-03-06T18:26:00.506Z,6.97
2024-03-06T18:28:27.774Z,6.92
2024-03-06T18:30:54.466Z,6.89
2024-03-06T18:33:21.525Z,6.91
2024-03-06T18:35:48.213Z,6.88
2024-03-06T18:38:14.884Z,6.87
2024-03-06T18:40:41.501Z,6.85
2024-03-06T18:43:08.024Z,6.84
2024-03-06T18:45:34.601Z,6.82
2024-03-06T18:48:03.211Z,6.78
2024-03-06T18:50:32.726Z,6.78
2024-03-06T18:52:59.856Z,6.78
2024-03-06T18:55:27.536Z,6.77
2024-03-06T18:57:54.134Z,6.76
2024-03-06T19:00:21.907Z,6.73
2024-03-06T19:02:50.949Z,6.72
2024-03-06T19:05:18.089Z,6.70
2024-03-06T19:07:45.487Z,6.67
2024-03-06T19:10:12.691Z,6.64
2024-03-06T19:12:39.184Z,6.64
2024-03-06T19:15:07.739Z,6.64
2024-03-06T19:17:35.740Z,6.64
2024-03-06T19:20:02.431Z,6.60
2024-03-06T19:22:28.923Z,6.55
2024-03-06T19:24:55.440Z,6.57
2024-03-06T19:27:23.693Z,6.52
2024-03-06T19:29:53.202Z,6.54
2024-03-06T19:32:19.685Z,6.54
2024-03-06T19:34:46.275Z,6.51
2024-03-06T19:37:12.721Z,6.47
2024-03-06T19:39:39.250Z,6.48
2024-03-06T19:42:10.220Z,6.47
2024-03-06T19:44:36.868Z,6.43
2024-03-06T19:47:05.079Z,6.41
2024-03-06T19:49:31.632Z,6.44
2024-03-06T19:51:58.216Z,6.38
2024-03-06T19:54:24.809Z,6.39
2024-03-06T19:56:52.678Z,6.38
2024-03-06T19:59:19.372Z,6.34
2024-03-06T20:01:45.973Z,6.34
2024-03-06T20:04:12.553Z,6.31
2024-03-06T20:06:39.086Z,6.32
2024-03-06T20:09:06.310Z,6.27
2024-03-06T20:11:32.868Z,6.29
2024-03-06T20:13:59.513Z,6.26
2024-03-06T20:16:27.102Z,6.26
2024-03-06T20:18:53.694Z,6.24
2024-03-06T20:21:22.261Z,6.24
2024-03-06T20:23:49.884Z,6.21
2024-03-06T20:26:16.519Z,6.20
2024-03-06T20:28:44.986Z,6.18
2024-03-06T20:31:11.545Z,6.17
2024-03-06T20:33:38.120Z,6.17
2024-03-06T20:36:06.234Z,6.12
2024-03-06T20:38:34.026Z,6.14
2024-03-06T20:41:00.615Z,6.14
2024-03-06T20:43:27.302Z,6.11
2024-03-06T20:45:55.711Z,6.08
2024-03-06T20:48:26.818Z,6.06
2024-03-06T20:50:53.500Z,6.07
2024-03-06T20:53:20.612Z,6.03
2024-03-06T20:55:48.173Z,6.03
2024-03-06T20:58:15.045Z,6.03
2024-03-06T21:00:41.731Z,6.02
2024-03-06T21:03:09.521Z,5.96
2024-03-06T21:05:36.231Z,5.97
2024-03-06T21:08:02.882Z,5.98
2024-03-06T21:10:29.997Z,5.96
2024-03-06T21:12:56.628Z,5.92
2024-03-06T21:15:25.554Z,5.92
2024-03-06T21:17:52.251Z,5.91
2024-03-06T21:20:19.016Z,5.84
2024-03-06T21:22:46.118Z,5.90
2024-03-06T21:25:13.773Z,5.88
2024-03-06T21:27:40.875Z,5.88
2024-03-06T21:30:09.294Z,5.86
2024-03-06T21:32:36.945Z,5.85
2024-03-06T21:35:04.122Z,5.83
2024-03-06T21:37:34.179Z,5.83
2024-03-06T21:40:00.882Z,5.80
2024-03-06T21:42:27.434Z,5.82
2024-03-06T21:44:54.371Z,5.79
2024-03-06T21:47:22.320Z,5.76
2024-03-06T21:49:50.244Z,5.77
2024-03-06T21:52:16.736Z,5.76
2024-03-06T21:54:43.929Z,5.73
2024-03-06T21:57:13.831Z,5.75
2024-03-06T21:59:40.598Z,5.74
2024-03-06T22:02:08.949Z,5.71
2024-03-06T22:04:35.604Z,5.70
2024-03-06T22:07:02.171Z,5.69
2024-03-06T22:09:28.644Z,5.64
2024-03-06T22:11:55.227Z,5.65
2024-03-06T22:14:21.881Z,5.64
2024-03-06T22:16:48.377Z,5.59
2024-03-06T22:19:15.251Z,5.64
2024-03-06T22:21:42.694Z,5.64
2024-03-06T22:24:09.378Z,5.63
2024-03-06T22:26:35.882Z,5.62
2024-03-06T22:29:04.972Z,5.61
2024-03-06T22:31:31.413Z,5.60
2024-03-06T22:33:58.033Z,5.56
2024-03-06T22:36:24.834Z,5.59
2024-03-06T22:38:51.485Z,5.59
2024-03-06T22:41:22.118Z,5.52
2024-03-06T22:43:49.482Z,5.55
2024-03-06T22:46:16.361Z,5.54
2024-03-06T22:48:46.506Z,5.56
2024-03-06T22:51:13.063Z,5.56
2024-03-06T22:53:39.913Z,5.51
2024-03-06T22:56:07.137Z,5.54
2024-03-06T22:58:33.812Z,5.51
2024-03-06T23:01:00.310Z,5.53
2024-03-06T23:03:27.100Z,5.50
2024-03-06T23:05:54.229Z,5.51
2024-03-06T23:08:20.881Z,5.48
2024-03-06T23:10:47.404Z,5.48
2024-03-06T23:13:15.927Z,5.46
2024-03-06T23:15:43.551Z,5.47
2024-03-06T23:18:13.838Z,5.45
2024-03-06T23:20:40.445Z,5.44
2024-03-06T23:23:07.544Z,5.39
2024-03-06T23:25:34.314Z,5.38
2024-03-06T23:28:02.365Z,5.42
2024-03-06T23:30:29.016Z,5.41
2024-03-06T23:32:56.375Z,5.40
2024-03-06T23:35:23.210Z,5.39
2024-03-06T23:37:50.319Z,5.39
2024-03-06T23:40:17.077Z,5.40
2024-03-06T23:42:45.462Z,5.39
2024-03-06T23:45:13.021Z,5.40
2024-03-06T23:47:40.530Z,5.42
2024-03-06T23:50:09.008Z,5.41
2024-03-06T23:52:36.689Z,5.39
2024-03-06T23:55:04.932Z,5.42
2024-03-06T23:57:31.383Z,5.37
2024-03-06T23:59:58.717Z,5.41
